createdAt,value
2022-08-30T00:01:14.573Z,16.91
2022-08-30T00:03:45.530Z,16.92
2022-08-30T00:06:14.920Z,16.93
2022-08-30T00:08:43.480Z,16.94
2022-08-30T00:11:14.965Z,16.94
2022-08-30T00:13:44.544Z,16.95
2022-08-30T00:16:12.571Z,16.92
2022-08-30T00:18:40.600Z,16.89
2022-08-30T00:21:07.920Z,16.84
2022-08-30T00:23:34.794Z,16.75
2022-08-30T00:26:02.691Z,16.66
2022-08-30T00:28:30.247Z,16.60
2022-08-30T00:30:57.091Z,16.57
2022-08-30T00:33:23.972Z,16.52
2022-08-30T00:35:50.667Z,16.47
2022-08-30T00:38:17.248Z,16.42
2022-08-30T00:40:45.435Z,16.37
2022-08-30T00:43:19.503Z,16.36
2022-08-30T00:45:47.137Z,16.32
2022-08-30T00:48:13.817Z,16.27
2022-08-30T00:50:43.860Z,16.22
2022-08-30T00:53:15.646Z,16.18
2022-08-30T00:55:44.166Z,16.14
2022-08-30T00:58:16.751Z,16.14
2022-08-30T01:00:44.075Z,16.12
2022-08-30T01:03:10.706Z,16.09
2022-08-30T01:05:39.735Z,16.06
2022-08-30T01:08:06.890Z,16.08
2022-08-30T01:10:35.953Z,16.08
2022-08-30T01:13:03.463Z,16.11
2022-08-30T01:15:32.639Z,16.09
2022-08-30T01:18:02.351Z,16.06
2022-08-30T01:20:35.812Z,16.02
2022-08-30T01:23:08.803Z,16.02
2022-08-30T01:25:37.781Z,16.02
2022-08-30T01:28:08.681Z,16.03
2022-08-30T01:30:39.011Z,16.05
2022-08-30T01:33:07.005Z,16.03
2022-08-30T01:35:44.446Z,16.04
2022-08-30T01:38:13.131Z,16.03
2022-08-30T01:40:40.546Z,15.98
2022-08-30T01:43:07.402Z,15.95
2022-08-30T01:45:34.408Z,15.93
2022-08-30T01:48:02.747Z,15.93
2022-08-30T01:50:33.389Z,15.92
2022-08-30T01:53:00.241Z,15.91
2022-08-30T01:55:26.964Z,15.87
2022-08-30T01:57:53.596Z,15.85
2022-08-30T02:00:20.200Z,15.79
2022-08-30T02:02:46.906Z,15.74
2022-08-30T02:05:13.686Z,15.70
2022-08-30T02:07:40.455Z,15.69
2022-08-30T02:10:07.821Z,15.64
2022-08-30T02:12:34.946Z,15.61
2022-08-30T02:15:01.936Z,15.58
2022-08-30T02:17:28.527Z,15.53
2022-08-30T02:19:55.257Z,15.53
2022-08-30T02:22:21.917Z,15.52
2022-08-30T02:24:48.550Z,15.51
2022-08-30T02:27:15.296Z,15.46
2022-08-30T02:29:42.311Z,15.42
2022-08-30T02:32:08.888Z,15.42
2022-08-30T02:34:35.508Z,15.41
2022-08-30T02:37:02.186Z,15.41
2022-08-30T02:39:28.659Z,15.36
2022-08-30T02:41:55.237Z,15.31
2022-08-30T02:44:21.770Z,15.27
2022-08-30T02:46:48.540Z,15.23
2022-08-30T02:49:33.590Z,15.18
2022-08-30T02:52:01.143Z,15.15
2022-08-30T02:54:28.688Z,15.12
2022-08-30T02:56:56.214Z,15.09
2022-08-30T02:59:22.894Z,15.10
2022-08-30T03:01:49.612Z,15.11
2022-08-30T03:04:16.240Z,15.08
2022-08-30T03:06:42.784Z,15.08
2022-08-30T03:09:09.343Z,15.09
2022-08-30T03:11:36.053Z,15.11
2022-08-30T03:14:02.600Z,15.11
2022-08-30T03:16:29.162Z,15.10
2022-08-30T03:18:55.714Z,15.08
2022-08-30T03:21:22.532Z,15.07
2022-08-30T03:23:49.771Z,15.02
2022-08-30T03:36:27.948Z,14.82
2022-08-30T03:38:54.818Z,14.81
2022-08-30T03:41:21.284Z,14.77
2022-08-30T03:43:48.022Z,14.76
2022-08-30T03:46:14.725Z,14.72
2022-08-30T03:48:42.152Z,14.66
2022-08-30T03:51:08.969Z,14.65
2022-08-30T03:53:35.705Z,14.63
2022-08-30T03:56:02.813Z,14.61
2022-08-30T03:58:29.385Z,14.57
2022-08-30T04:00:56.096Z,14.56
2022-08-30T04:03:26.041Z,14.53
2022-08-30T04:05:54.760Z,14.48
2022-08-30T04:08:22.807Z,14.47
2022-08-30T04:10:49.993Z,14.44
2022-08-30T04:13:16.892Z,14.41
2022-08-30T04:15:43.480Z,14.41
2022-08-30T04:18:10.258Z,14.43
2022-08-30T04:20:38.020Z,14.46
2022-08-30T04:23:07.239Z,14.50
2022-08-30T04:25:35.191Z,14.54
2022-08-30T04:28:02.530Z,14.56
2022-08-30T04:30:29.195Z,14.56
2022-08-30T04:32:58.709Z,14.52
2022-08-30T04:35:26.462Z,14.44
2022-08-30T04:37:53.087Z,14.39
2022-08-30T04:40:20.294Z,14.35
2022-08-30T04:42:47.642Z,14.33
2022-08-30T04:45:16.210Z,14.30
2022-08-30T04:47:43.360Z,14.29
2022-08-30T04:50:12.316Z,14.29
2022-08-30T04:52:38.957Z,14.26
2022-08-30T04:55:06.671Z,14.23
2022-08-30T04:57:33.324Z,14.22
2022-08-30T04:59:59.887Z,14.19
2022-08-30T05:02:26.839Z,14.17
2022-08-30T05:05:12.341Z,14.15
2022-08-30T05:07:41.008Z,14.13
2022-08-30T05:10:11.360Z,14.13
2022-08-30T05:12:38.711Z,14.14
2022-08-30T05:15:05.833Z,14.15
2022-08-30T05:17:32.732Z,14.14
2022-08-30T05:20:01.793Z,14.15
2022-08-30T05:22:28.400Z,14.17
2022-08-30T05:24:54.921Z,14.21
2022-08-30T05:27:21.666Z,14.26
2022-08-30T05:29:48.199Z,14.29
2022-08-30T05:32:14.837Z,14.32
2022-08-30T05:34:41.820Z,14.35
2022-08-30T05:37:08.388Z,14.39
2022-08-30T05:39:50.789Z,14.42
2022-08-30T05:42:17.789Z,14.44
2022-08-30T05:44:44.535Z,14.47
2022-08-30T05:47:11.190Z,14.51
2022-08-30T05:49:37.805Z,14.55
2022-08-30T05:52:04.867Z,14.60
2022-08-30T05:54:31.559Z,14.67
2022-08-30T05:56:58.427Z,14.75
2022-08-30T05:59:25.047Z,14.86
2022-08-30T06:01:51.610Z,14.97
2022-08-30T06:04:18.436Z,15.08
2022-08-30T06:06:47.271Z,15.21
2022-08-30T06:09:15.118Z,15.35
2022-08-30T06:11:43.190Z,15.47
2022-08-30T06:14:10.449Z,15.61
2022-08-30T06:16:39.053Z,15.72
2022-08-30T06:19:08.585Z,15.83
2022-08-30T06:21:37.070Z,15.95
2022-08-30T06:24:06.363Z,16.05
2022-08-30T06:26:38.429Z,16.14
2022-08-30T06:29:05.006Z,16.24
2022-08-30T06:31:33.621Z,16.30
2022-08-30T06:34:00.423Z,16.38
2022-08-30T06:36:27.291Z,16.48
2022-08-30T06:38:56.460Z,16.56
2022-08-30T06:41:26.782Z,16.66
2022-08-30T06:43:53.940Z,16.73
2022-08-30T06:46:25.282Z,16.81
2022-08-30T06:48:52.557Z,16.88
2022-08-30T06:51:26.289Z,16.95
2022-08-30T06:53:53.838Z,17.01
2022-08-30T06:56:22.147Z,17.06
2022-08-30T06:58:50.221Z,17.17
2022-08-30T07:01:20.107Z,17.26
2022-08-30T07:03:46.768Z,17.38
2022-08-30T07:06:14.444Z,17.39
2022-08-30T07:08:41.443Z,17.39
2022-08-30T07:11:09.368Z,17.40
2022-08-30T07:13:37.479Z,17.43
2022-08-30T07:16:14.174Z,17.46
2022-08-30T07:18:51.183Z,17.49
2022-08-30T07:21:27.396Z,17.53
2022-08-30T07:23:57.216Z,17.57
2022-08-30T07:26:27.808Z,17.62
2022-08-30T07:28:56.499Z,17.67
2022-08-30T07:31:26.783Z,17.72
2022-08-30T07:33:53.744Z,17.79
2022-08-30T07:36:23.312Z,17.85
2022-08-30T07:38:53.470Z,17.92
2022-08-30T07:41:27.220Z,17.99
2022-08-30T07:43:53.930Z,18.05
2022-08-30T07:46:22.112Z,18.11
2022-08-30T07:48:49.284Z,18.16
2022-08-30T07:51:21.742Z,18.23
2022-08-30T07:53:49.075Z,18.28
2022-08-30T07:56:16.124Z,18.33
2022-08-30T07:58:44.425Z,18.39
2022-08-30T08:01:12.598Z,18.46
2022-08-30T08:03:40.372Z,18.51
2022-08-30T08:06:09.027Z,18.57
2022-08-30T08:08:38.144Z,18.61
2022-08-30T08:11:16.371Z,18.67
2022-08-30T08:13:52.968Z,18.71
2022-08-30T08:16:23.504Z,18.76
2022-08-30T08:18:51.123Z,18.80
2022-08-30T08:21:17.642Z,18.84
2022-08-30T08:23:45.009Z,18.90
2022-08-30T08:26:11.613Z,18.95
2022-08-30T08:28:38.303Z,19.01
2022-08-30T08:31:14.571Z,19.06
2022-08-30T08:33:41.337Z,19.11
2022-08-30T08:36:09.496Z,19.15
2022-08-30T08:38:37.893Z,19.19
2022-08-30T08:41:42.808Z,19.27
2022-08-30T08:44:42.588Z,19.32
2022-08-30T08:47:45.799Z,19.36
2022-08-30T08:50:18.544Z,19.40
2022-08-30T08:53:20.604Z,19.46
2022-08-30T08:55:58.497Z,19.54
2022-08-30T08:58:33.174Z,19.59
2022-08-30T09:01:00.439Z,19.66
2022-08-30T09:03:29.502Z,19.69
2022-08-30T09:05:57.640Z,19.77
2022-08-30T09:08:24.604Z,19.81
2022-08-30T09:10:59.415Z,19.88
2022-08-30T09:13:26.618Z,19.93
2022-08-30T09:15:56.284Z,19.97
2022-08-30T09:18:45.524Z,20.05
2022-08-30T09:21:14.414Z,20.08
2022-08-30T09:23:56.268Z,20.12
2022-08-30T09:26:32.647Z,20.16
2022-08-30T09:29:00.982Z,20.21
2022-08-30T09:31:30.658Z,20.26
2022-08-30T09:34:09.403Z,20.33
2022-08-30T09:36:52.256Z,20.40
2022-08-30T09:39:41.499Z,20.46
2022-08-30T09:42:25.216Z,20.51
2022-08-30T09:44:53.841Z,20.53
2022-08-30T09:47:28.922Z,20.58
2022-08-30T09:50:18.452Z,20.63
2022-08-30T09:53:00.571Z,20.65
2022-08-30T09:55:39.542Z,20.67
2022-08-30T09:58:31.008Z,20.70
2022-08-30T10:01:15.842Z,20.75
2022-08-30T10:03:55.341Z,20.78
2022-08-30T10:06:34.133Z,20.83
2022-08-30T10:09:22.751Z,20.91
2022-08-30T10:12:04.368Z,20.96
2022-08-30T10:14:51.109Z,21.03
2022-08-30T10:17:44.120Z,21.10
2022-08-30T10:20:22.308Z,21.14
2022-08-30T10:23:09.984Z,21.18
2022-08-30T10:25:41.707Z,21.20
2022-08-30T10:28:20.397Z,21.27
2022-08-30T10:30:57.307Z,21.32
2022-08-30T10:33:37.433Z,21.37
2022-08-30T10:36:10.497Z,21.40
2022-08-30T10:38:41.258Z,21.52
2022-08-30T10:41:27.927Z,21.56
2022-08-30T10:44:01.062Z,21.57
2022-08-30T10:47:09.405Z,21.62
2022-08-30T10:49:56.669Z,21.65
2022-08-30T10:52:31.292Z,21.69
2022-08-30T10:55:02.832Z,21.73
2022-08-30T10:57:29.411Z,21.76
2022-08-30T11:00:05.891Z,21.80
2022-08-30T11:03:00.618Z,21.88
2022-08-30T11:06:00.318Z,21.95
2022-08-30T11:08:39.603Z,21.98
2022-08-30T11:11:26.672Z,22.03
2022-08-30T11:13:57.247Z,22.08
2022-08-30T11:16:38.977Z,22.15
2022-08-30T11:19:18.933Z,22.21
2022-08-30T11:21:48.179Z,22.31
2022-08-30T11:24:24.853Z,22.35
2022-08-30T11:27:01.354Z,22.36
2022-08-30T11:29:45.798Z,22.42
2022-08-30T11:32:19.060Z,22.55
2022-08-30T11:34:45.719Z,22.57
2022-08-30T11:37:37.497Z,22.61
2022-08-30T11:40:31.493Z,22.62
2022-08-30T11:42:58.112Z,22.62
2022-08-30T11:45:57.274Z,22.64
2022-08-30T11:48:54.056Z,22.68
2022-08-30T11:51:58.102Z,22.75
2022-08-30T11:55:02.902Z,22.78
2022-08-30T11:57:52.998Z,22.90
2022-08-30T12:00:34.284Z,22.88
2022-08-30T12:03:06.501Z,22.91
2022-08-30T12:05:42.862Z,22.92
2022-08-30T12:08:37.312Z,22.96
2022-08-30T12:11:28.239Z,23.00
2022-08-30T12:13:57.655Z,23.04
2022-08-30T12:16:58.945Z,23.09
2022-08-30T12:19:26.839Z,23.16
2022-08-30T12:22:01.732Z,23.23
2022-08-30T12:24:44.038Z,23.27
2022-08-30T12:27:33.303Z,23.28
2022-08-30T12:30:08.361Z,23.31
2022-08-30T12:32:47.762Z,23.39
2022-08-30T12:35:26.413Z,23.43
2022-08-30T12:38:06.204Z,23.49
2022-08-30T12:40:35.317Z,23.53
2022-08-30T12:43:05.720Z,23.53
2022-08-30T12:45:44.210Z,23.59
2022-08-30T12:48:17.595Z,23.65
2022-08-30T12:50:54.535Z,23.72
2022-08-30T12:53:27.859Z,23.72
2022-08-30T12:55:59.531Z,23.76
2022-08-30T12:58:49.859Z,23.76
2022-08-30T13:01:28.683Z,23.77
2022-08-30T13:04:18.987Z,23.80
2022-08-30T13:06:57.946Z,23.77
2022-08-30T13:09:32.565Z,23.74
2022-08-30T13:12:01.717Z,23.68
2022-08-30T13:14:38.630Z,23.76
2022-08-30T13:17:15.429Z,23.80
2022-08-30T13:19:43.769Z,23.83
2022-08-30T13:22:30.949Z,23.70
2022-08-30T13:24:57.693Z,23.63
2022-08-30T13:27:25.590Z,23.57
2022-08-30T13:29:52.938Z,23.62
2022-08-30T13:32:20.678Z,23.62
2022-08-30T13:34:47.377Z,23.61
2022-08-30T13:40:15.197Z,23.68
2022-08-30T13:42:43.200Z,23.63
2022-08-30T13:48:00.287Z,23.54
2022-08-30T13:50:28.067Z,23.55
2022-08-30T13:52:54.687Z,23.56
2022-08-30T13:55:21.301Z,23.56
2022-08-30T13:57:54.194Z,23.56
2022-08-30T14:00:22.539Z,23.62
2022-08-30T14:02:55.098Z,23.68
2022-08-30T14:11:04.136Z,23.76
2022-08-30T14:13:31.873Z,23.71
2022-08-30T14:18:48.887Z,23.72
2022-08-30T14:21:16.397Z,23.73
2022-08-30T14:23:43.152Z,23.76
2022-08-30T14:26:18.543Z,23.76
2022-08-30T14:28:45.276Z,23.80
2022-08-30T14:31:13.602Z,23.81
2022-08-30T14:33:40.399Z,23.81
2022-08-30T14:36:12.983Z,23.80
2022-08-30T14:38:43.741Z,23.71
2022-08-30T14:41:20.911Z,23.72
2022-08-30T14:43:49.719Z,23.75
2022-08-30T14:46:27.089Z,23.76
2022-08-30T14:48:54.355Z,23.70
2022-08-30T14:51:22.972Z,23.64
2022-08-30T14:53:53.561Z,23.61
2022-08-30T14:56:24.124Z,23.59
2022-08-30T14:58:54.113Z,23.50
2022-08-30T15:01:27.751Z,23.48
2022-08-30T15:03:54.937Z,23.38
2022-08-30T15:06:24.007Z,23.38
2022-08-30T15:08:56.963Z,23.42
2022-08-30T15:11:27.373Z,23.41
2022-08-30T15:13:56.383Z,23.49
2022-08-30T15:16:29.753Z,23.47
2022-08-30T15:18:58.529Z,23.40
2022-08-30T15:21:31.742Z,23.36
2022-08-30T15:24:00.243Z,23.31
2022-08-30T15:26:28.060Z,23.32
2022-08-30T15:28:55.667Z,23.28
2022-08-30T15:31:31.901Z,23.25
2022-08-30T15:33:59.548Z,23.27
2022-08-30T15:36:42.509Z,23.29
2022-08-30T15:39:12.892Z,23.35
2022-08-30T15:41:44.255Z,23.39
2022-08-30T15:44:12.331Z,23.37
2022-08-30T15:46:43.058Z,23.37
2022-08-30T15:49:16.482Z,23.30
2022-08-30T15:51:46.124Z,23.22
2022-08-30T15:54:16.481Z,23.22
2022-08-30T15:56:54.039Z,23.26
2022-08-30T15:59:26.777Z,23.26
2022-08-30T16:01:55.394Z,23.21
2022-08-30T16:04:24.844Z,23.19
2022-08-30T16:06:52.860Z,23.17
2022-08-30T16:09:21.680Z,23.14
2022-08-30T16:11:49.157Z,23.17
2022-08-30T16:14:16.302Z,23.11
2022-08-30T16:16:43.315Z,23.09
2022-08-30T16:19:10.367Z,23.13
2022-08-30T16:21:37.315Z,23.16
2022-08-30T16:24:05.785Z,23.13
2022-08-30T16:26:36.752Z,23.13
2022-08-30T16:29:07.202Z,23.16
2022-08-30T16:31:35.931Z,23.12
2022-08-30T16:34:04.373Z,23.11
2022-08-30T16:36:32.509Z,23.09
2022-08-30T16:38:59.883Z,23.05
2022-08-30T16:41:26.748Z,23.00
2022-08-30T16:43:54.386Z,22.96
2022-08-30T16:46:23.439Z,22.95
2022-08-30T16:48:58.999Z,22.86
2022-08-30T16:51:27.551Z,22.86
2022-08-30T16:53:56.803Z,22.89
2022-08-30T16:56:25.208Z,22.78
2022-08-30T16:59:01.098Z,22.73
2022-08-30T17:01:30.648Z,22.68
2022-08-30T17:03:57.438Z,22.62
2022-08-30T17:06:24.324Z,22.57
2022-08-30T17:08:55.886Z,22.52
2022-08-30T17:11:23.709Z,22.49
2022-08-30T17:13:50.970Z,22.49
2022-08-30T17:16:22.326Z,22.46
2022-08-30T17:18:55.053Z,22.42
2022-08-30T17:21:21.920Z,22.36
2022-08-30T17:23:51.246Z,22.29
2022-08-30T17:26:18.341Z,22.25
2022-08-30T17:28:45.724Z,22.22
2022-08-30T17:31:12.911Z,22.23
2022-08-30T17:33:43.100Z,22.19
2022-08-30T17:36:12.861Z,22.19
2022-08-30T17:38:44.899Z,22.15
2022-08-30T17:41:12.168Z,22.11
2022-08-30T17:43:41.982Z,22.08
2022-08-30T17:46:11.977Z,22.03
2022-08-30T17:48:40.481Z,22.00
2022-08-30T17:51:07.341Z,21.96
2022-08-30T17:53:35.502Z,21.93
2022-08-30T17:56:03.493Z,21.91
2022-08-30T17:58:30.295Z,21.86
2022-08-30T18:01:14.372Z,21.83
2022-08-30T18:03:45.335Z,21.77
2022-08-30T18:06:13.880Z,21.75
2022-08-30T18:08:40.703Z,21.70
2022-08-30T18:11:07.403Z,21.66
2022-08-30T18:13:34.207Z,21.61
2022-08-30T18:16:03.045Z,21.58
2022-08-30T18:18:30.364Z,21.55
2022-08-30T18:20:56.984Z,21.52
2022-08-30T18:23:24.352Z,21.50
2022-08-30T18:25:56.695Z,21.46
2022-08-30T18:28:23.564Z,21.42
2022-08-30T18:30:50.083Z,21.38
2022-08-30T18:33:16.909Z,21.34
2022-08-30T18:35:48.245Z,21.29
2022-08-30T18:38:15.160Z,21.25
2022-08-30T18:40:42.150Z,21.21
2022-08-30T18:43:10.418Z,21.17
2022-08-30T18:45:39.568Z,21.13
2022-08-30T18:48:06.088Z,21.09
2022-08-30T18:50:34.113Z,21.03
2022-08-30T18:53:00.963Z,20.99
2022-08-30T18:55:28.538Z,20.95
2022-08-30T18:57:55.234Z,20.90
2022-08-30T19:00:21.980Z,20.86
2022-08-30T19:02:48.820Z,20.82
2022-08-30T19:05:22.512Z,20.77
2022-08-30T19:07:51.820Z,20.74
2022-08-30T19:10:27.130Z,20.71
2022-08-30T19:12:54.596Z,20.68
2022-08-30T19:15:22.247Z,20.64
2022-08-30T19:17:49.403Z,20.57
2022-08-30T19:20:20.727Z,20.53
2022-08-30T19:23:09.671Z,20.46
2022-08-30T19:25:35.184Z,20.41
2022-08-30T19:28:02.089Z,20.38
2022-08-30T19:30:30.232Z,20.34
2022-08-30T19:32:57.331Z,20.33
2022-08-30T19:36:04.551Z,20.27
2022-08-30T19:38:31.893Z,20.21
2022-08-30T19:40:59.632Z,20.18
2022-08-30T19:43:27.004Z,20.14
2022-08-30T19:45:58.902Z,20.07
2022-08-30T19:48:32.772Z,20.02
2022-08-30T19:51:01.375Z,20.01
2022-08-30T19:53:27.989Z,20.00
2022-08-30T19:55:55.419Z,19.97
2022-08-30T19:58:21.985Z,19.91
2022-08-30T20:00:55.900Z,19.86
2022-08-30T20:03:37.595Z,19.80
2022-08-30T20:06:07.015Z,19.78
2022-08-30T20:08:33.725Z,19.74
2022-08-30T20:11:00.568Z,19.69
2022-08-30T20:13:28.324Z,19.65
2022-08-30T20:15:56.538Z,19.59
2022-08-30T20:18:26.057Z,19.56
2022-08-30T20:20:53.498Z,19.53
2022-08-30T20:23:23.117Z,19.48
2022-08-30T20:25:54.695Z,19.50
2022-08-30T20:28:21.849Z,19.53
2022-08-30T20:30:49.219Z,19.48
2022-08-30T20:33:16.204Z,19.46
2022-08-30T20:35:48.831Z,19.41
2022-08-30T20:38:22.455Z,19.38
2022-08-30T20:40:52.376Z,19.37
2022-08-30T20:43:21.436Z,19.33
2022-08-30T20:45:48.954Z,19.33
2022-08-30T20:48:17.479Z,19.33
2022-08-30T20:50:44.631Z,19.33
2022-08-30T20:53:11.792Z,19.34
2022-08-30T20:55:45.144Z,19.33
2022-08-30T20:58:12.216Z,19.30
2022-08-30T21:00:39.283Z,19.30
2022-08-30T21:03:26.516Z,19.29
2022-08-30T21:05:54.449Z,19.20
2022-08-30T21:08:20.984Z,19.17
2022-08-30T21:10:48.131Z,19.18
2022-08-30T21:13:15.484Z,19.13
2022-08-30T21:15:45.859Z,19.10
2022-08-30T21:18:14.215Z,19.10
2022-08-30T21:20:41.236Z,19.11
2022-08-30T21:23:08.233Z,19.08
2022-08-30T21:25:39.389Z,19.06
2022-08-30T21:28:06.950Z,19.05
2022-08-30T21:30:34.808Z,19.00
2022-08-30T21:33:03.904Z,18.98
2022-08-30T21:35:48.823Z,18.96
2022-08-30T21:38:15.724Z,18.92
2022-08-30T21:40:43.283Z,18.88
2022-08-30T21:43:10.963Z,18.86
2022-08-30T21:45:41.285Z,18.85
2022-08-30T21:48:08.723Z,18.84
2022-08-30T21:50:37.706Z,18.82
2022-08-30T21:53:05.846Z,18.79
2022-08-30T21:55:33.017Z,18.78
2022-08-30T21:58:00.019Z,18.78
2022-08-30T22:00:26.782Z,18.76
2022-08-30T22:02:53.640Z,18.73
2022-08-30T22:05:20.632Z,18.69
2022-08-30T22:07:47.291Z,18.68
2022-08-30T22:10:13.908Z,18.64
2022-08-30T22:12:41.454Z,18.60
2022-08-30T22:15:09.212Z,18.58
2022-08-30T22:17:36.037Z,18.56
2022-08-30T22:20:03.975Z,18.54
2022-08-30T22:22:30.608Z,18.51
2022-08-30T22:24:57.163Z,18.48
2022-08-30T22:27:23.757Z,18.45
2022-08-30T22:29:50.405Z,18.43
2022-08-30T22:32:17.037Z,18.39
2022-08-30T22:34:47.256Z,18.35
2022-08-30T22:37:13.973Z,18.30
2022-08-30T22:39:40.631Z,18.29
2022-08-30T22:42:09.286Z,18.26
2022-08-30T22:44:36.357Z,18.24
2022-08-30T22:47:02.940Z,18.23
2022-08-30T22:49:29.567Z,18.21
2022-08-30T22:51:56.137Z,18.17
2022-08-30T22:54:22.846Z,18.17
2022-08-30T22:56:50.120Z,18.16
2022-08-30T22:59:16.759Z,18.10
2022-08-30T23:01:43.749Z,18.08
2022-08-30T23:04:11.663Z,18.06
2022-08-30T23:06:38.955Z,18.04
2022-08-30T23:09:06.847Z,17.99
2022-08-30T23:11:34.041Z,17.97
2022-08-30T23:14:02.056Z,17.96
2022-08-30T23:16:28.910Z,17.95
2022-08-30T23:18:55.786Z,17.90
2022-08-30T23:21:25.373Z,17.89
2022-08-30T23:24:11.893Z,17.85
2022-08-30T23:26:58.172Z,17.80
2022-08-30T23:29:43.990Z,17.76
2022-08-30T23:32:28.948Z,17.73
2022-08-30T23:35:14.148Z,17.72
2022-08-30T23:37:59.981Z,17.68
2022-08-30T23:40:45.109Z,17.65
2022-08-30T23:43:30.367Z,17.63
2022-08-30T23:46:19.461Z,17.59
2022-08-30T23:49:06.332Z,17.55
2022-08-30T23:51:52.019Z,17.52
2022-08-30T23:54:37.101Z,17.50
2022-08-30T23:57:23.745Z,17.49
